sensor_id;sensor_type;location;lat;lon;timestamp;temperature;humidity
2565;DHT22;1292;48.020;7.822;2022-11-21T06:46:20;7.60;99.90
2565;DHT22;1292;48.020;7.822;2022-11-21T06:48:47;7.70;99.90
2565;DHT22;1292;48.020;7.822;2022-11-21T06:51:16;7.70;99.90
2565;DHT22;1292;48.020;7.822;2022-11-21T06:53:44;7.60;99.90
2565;DHT22;1292;48.020;7.822;2022-11-21T06:56:11;7.60;99.90
2565;DHT22;1292;48.020;7.822;2022-11-21T06:58:38;7.60;99.90
2565;DHT22;1292;48.020;7.822;2022-11-21T07:01:06;7.60;99.90
2565;DHT22;1292;48.020;7.822;2022-11-21T07:03:35;7.60;99.90
2565;DHT22;1292;48.020;7.822;2022-11-21T07:06:02;7.60;99.90
2565;DHT22;1292;48.020;7.822;2022-11-21T07:08:31;7.70;99.90
2565;DHT22;1292;48.020;7.822;2022-11-21T07:11:00;7.60;99.90
2565;DHT22;1292;48.020;7.822;2022-11-21T07:13:27;7.70;99.90
2565;DHT22;1292;48.020;7.822;2022-11-21T07:16:00;7.60;99.90
2565;DHT22;1292;48.020;7.822;2022-11-21T07:18:27;7.60;99.90
2565;DHT22;1292;48.020;7.822;2022-11-21T07:20:58;7.70;99.90
2565;DHT22;1292;48.020;7.822;2022-11-21T07:23:25;7.70;99.90
2565;DHT22;1292;48.020;7.822;2022-11-21T07:25:52;7.70;99.90
2565;DHT22;1292;48.020;7.822;2022-11-21T07:28:20;7.70;99.90
2565;DHT22;1292;48.020;7.822;2022-11-21T07:30:47;7.70;99.90
2565;DHT22;1292;48.020;7.822;2022-11-21T07:33:14;7.70;99.90
2565;DHT22;1292;48.020;7.822;2022-11-21T07:35:41;7.70;99.90
2565;DHT22;1292;48.020;7.822;2022-11-21T07:38:11;7.80;99.90
2565;DHT22;1292;48.020;7.822;2022-11-21T07:40:38;7.80;99.90
2565;DHT22;1292;48.020;7.822;2022-11-21T07:43:05;7.70;99.90
2565;DHT22;1292;48.020;7.822;2022-11-21T07:45:33;7.80;99.90
2565;DHT22;1292;48.020;7.822;2022-11-21T07:48:01;7.80;99.90
2565;DHT22;1292;48.020;7.822;2022-11-21T07:50:29;7.80;99.90
2565;DHT22;1292;48.020;7.822;2022-11-21T07:52:57;7.90;99.90
2565;DHT22;1292;48.020;7.822;2022-11-21T07:55:26;7.80;99.90
2565;DHT22;1292;48.020;7.822;2022-11-21T07:57:58;7.90;99.90
2565;DHT22;1292;48.020;7.822;2022-11-21T08:00:25;7.90;99.90
2565;DHT22;1292;48.020;7.822;2022-11-21T08:02:52;7.90;99.90
2565;DHT22;1292;48.020;7.822;2022-11-21T08:05:19;7.90;99.90
2565;DHT22;1292;48.020;7.822;2022-11-21T08:07:46;7.90;99.90
2565;DHT22;1292;48.020;7.822;2022-11-21T08:10:14;7.90;99.90
2565;DHT22;1292;48.020;7.822;2022-11-21T08:12:42;7.90;99.90
2565;DHT22;1292;48.020;7.822;2022-11-21T08:15:10;8.00;99.90
2565;DHT22;1292;48.020;7.822;2022-11-21T08:17:37;7.90;99.90
2565;DHT22;1292;48.020;7.822;2022-11-21T08:20:05;8.00;99.90
2565;DHT22;1292;48.020;7.822;2022-11-21T08:22:37;8.00;99.90
2565;DHT22;1292;48.020;7.822;2022-11-21T08:25:05;8.00;99.90
2565;DHT22;1292;48.020;7.822;2022-11-21T08:27:32;8.00;99.90
2565;DHT22;1292;48.020;7.822;2022-11-21T08:30:00;8.00;99.90
2565;DHT22;1292;48.020;7.822;2022-11-21T08:32:27;8.10;99.90
2565;DHT22;1292;48.020;7.822;2022-11-21T08:34:54;8.10;99.90
2565;DHT22;1292;48.020;7.822;2022-11-21T08:37:20;8.10;99.90
2565;DHT22;1292;48.020;7.822;2022-11-21T08:39:47;8.20;99.90
2565;DHT22;1292;48.020;7.822;2022-11-21T08:42:14;8.20;99.90
2565;DHT22;1292;48.020;7.822;2022-11-21T08:44:41;8.20;99.90
2565;DHT22;1292;48.020;7.822;2022-11-21T08:47:09;8.30;99.90
2565;DHT22;1292;48.020;7.822;2022-11-21T08:49:36;8.30;99.90
2565;DHT22;1292;48.020;7.822;2022-11-21T08:52:03;8.40;99.90
2565;DHT22;1292;48.020;7.822;2022-11-21T08:54:30;8.30;99.90
2565;DHT22;1292;48.020;7.822;2022-11-21T08:56:57;8.40;99.90
2565;DHT22;1292;48.020;7.822;2022-11-21T08:59:24;8.40;99.90
2565;DHT22;1292;48.020;7.822;2022-11-21T09:01:50;8.50;99.90
2565;DHT22;1292;48.020;7.822;2022-11-21T09:04:19;8.50;99.90
2565;DHT22;1292;48.020;7.822;2022-11-21T09:06:46;8.50;99.90
2565;DHT22;1292;48.020;7.822;2022-11-21T09:09:12;8.50;99.90
2565;DHT22;1292;48.020;7.822;2022-11-21T09:11:39;8.50;99.90
2565;DHT22;1292;48.020;7.822;2022-11-21T09:14:06;8.60;99.90
2565;DHT22;1292;48.020;7.822;2022-11-21T09:16:50;8.70;99.90
2565;DHT22;1292;48.020;7.822;2022-11-21T09:19:36;8.70;99.90
2565;DHT22;1292;48.020;7.822;2022-11-21T09:22:03;8.80;99.90
2565;DHT22;1292;48.020;7.822;2022-11-21T09:24:30;8.80;99.90
2565;DHT22;1292;48.020;7.822;2022-11-21T09:26:58;8.80;99.90
2565;DHT22;1292;48.020;7.822;2022-11-21T09:29:25;8.80;99.90
2565;DHT22;1292;48.020;7.822;2022-11-21T09:31:51;9.00;99.90
2565;DHT22;1292;48.020;7.822;2022-11-21T09:34:18;9.00;99.90
2565;DHT22;1292;48.020;7.822;2022-11-21T09:36:46;9.10;99.90
2565;DHT22;1292;48.020;7.822;2022-11-21T09:39:13;9.20;99.90
2565;DHT22;1292;48.020;7.822;2022-11-21T09:41:53;9.20;99.90
2565;DHT22;1292;48.020;7.822;2022-11-21T09:44:43;9.30;99.90
2565;DHT22;1292;48.020;7.822;2022-11-21T09:47:20;9.30;99.90
2565;DHT22;1292;48.020;7.822;2022-11-21T09:49:52;9.30;99.90
2565;DHT22;1292;48.020;7.822;2022-11-21T09:52:25;9.30;99.90
2565;DHT22;1292;48.020;7.822;2022-11-21T09:54:57;9.30;99.90
2565;DHT22;1292;48.020;7.822;2022-11-21T09:57:25;9.30;99.90
2565;DHT22;1292;48.020;7.822;2022-11-21T09:59:52;9.30;99.90
2565;DHT22;1292;48.020;7.822;2022-11-21T10:02:21;9.30;99.90
2565;DHT22;1292;48.020;7.822;2022-11-21T10:04:49;9.30;99.90
2565;DHT22;1292;48.020;7.822;2022-11-21T10:07:23;9.30;99.90
2565;DHT22;1292;48.020;7.822;2022-11-21T10:10:04;9.40;99.90
2565;DHT22;1292;48.020;7.822;2022-11-21T10:12:44;9.40;99.90
2565;DHT22;1292;48.020;7.822;2022-11-21T10:15:23;9.40;99.90
2565;DHT22;1292;48.020;7.822;2022-11-21T10:18:16;9.40;99.90
2565;DHT22;1292;48.020;7.822;2022-11-21T10:20:53;9.50;99.90
2565;DHT22;1292;48.020;7.822;2022-11-21T10:23:47;9.60;99.90
2565;DHT22;1292;48.020;7.822;2022-11-21T10:26:23;9.60;99.90
2565;DHT22;1292;48.020;7.822;2022-11-21T10:28:59;9.70;99.90
2565;DHT22;1292;48.020;7.822;2022-11-21T10:31:34;9.70;99.90
2565;DHT22;1292;48.020;7.822;2022-11-21T10:34:02;9.80;99.90
2565;DHT22;1292;48.020;7.822;2022-11-21T10:36:34;9.80;99.90
2565;DHT22;1292;48.020;7.822;2022-11-21T10:39:09;9.80;99.90
2565;DHT22;1292;48.020;7.822;2022-11-21T10:41:41;9.80;99.90
2565;DHT22;1292;48.020;7.822;2022-11-21T10:44:20;9.90;99.90
2565;DHT22;1292;48.020;7.822;2022-11-21T10:47:15;10.00;99.90
2565;DHT22;1292;48.020;7.822;2022-11-21T10:49:56;10.10;99.90
2565;DHT22;1292;48.020;7.822;2022-11-21T10:52:26;10.10;99.90
2565;DHT22;1292;48.020;7.822;2022-11-21T10:55:19;10.20;99.90
2565;DHT22;1292;48.020;7.822;2022-11-21T10:57:47;10.20;99.90
2565;DHT22;1292;48.020;7.822;2022-11-21T11:00:21;10.20;99.90
2565;DHT22;1292;48.020;7.822;2022-11-21T11:03:03;10.20;99.90
2565;DHT22;1292;48.020;7.822;2022-11-21T11:05:31;10.20;99.90
2565;DHT22;1292;48.020;7.822;2022-11-21T11:08:02;10.30;99.90
2565;DHT22;1292;48.020;7.822;2022-11-21T11:10:31;10.30;99.90
2565;DHT22;1292;48.020;7.822;2022-11-21T11:12:59;10.30;99.90
2565;DHT22;1292;48.020;7.822;2022-11-21T11:15:56;10.30;99.90
2565;DHT22;1292;48.020;7.822;2022-11-21T11:18:25;10.30;99.90
2565;DHT22;1292;48.020;7.822;2022-11-21T11:20:52;10.30;99.90
2565;DHT22;1292;48.020;7.822;2022-11-21T11:23:25;10.30;99.90
2565;DHT22;1292;48.020;7.822;2022-11-21T11:25:56;10.40;99.90
2565;DHT22;1292;48.020;7.822;2022-11-21T11:28:24;10.40;99.90
2565;DHT22;1292;48.020;7.822;2022-11-21T11:30:53;10.50;99.90
2565;DHT22;1292;48.020;7.822;2022-11-21T11:33:29;10.50;99.90
2565;DHT22;1292;48.020;7.822;2022-11-21T11:36:00;10.50;99.90
2565;DHT22;1292;48.020;7.822;2022-11-21T11:38:31;10.50;99.90
2565;DHT22;1292;48.020;7.822;2022-11-21T11:41:04;10.60;99.90
2565;DHT22;1292;48.020;7.822;2022-11-21T11:43:37;10.60;99.90
2565;DHT22;1292;48.020;7.822;2022-11-21T11:46:36;10.70;99.90
2565;DHT22;1292;48.020;7.822;2022-11-21T11:49:29;10.70;99.90
2565;DHT22;1292;48.020;7.822;2022-11-21T11:52:01;10.70;99.90
2565;DHT22;1292;48.020;7.822;2022-11-21T11:54:39;10.80;99.90
2565;DHT22;1292;48.020;7.822;2022-11-21T11:57:09;10.90;99.90
2565;DHT22;1292;48.020;7.822;2022-11-21T11:59:39;11.00;99.90
2565;DHT22;1292;48.020;7.822;2022-11-21T12:02:19;11.00;99.90
2565;DHT22;1292;48.020;7.822;2022-11-21T12:04:51;11.10;99.90
2565;DHT22;1292;48.020;7.822;2022-11-21T12:07:22;11.10;99.90
2565;DHT22;1292;48.020;7.822;2022-11-21T12:09:57;11.10;99.90
2565;DHT22;1292;48.020;7.822;2022-11-21T12:12:32;11.10;99.90
2565;DHT22;1292;48.020;7.822;2022-11-21T12:15:10;11.20;99.90
2565;DHT22;1292;48.020;7.822;2022-11-21T12:18:08;11.30;99.90
2565;DHT22;1292;48.020;7.822;2022-11-21T12:20:44;11.30;99.90
2565;DHT22;1292;48.020;7.822;2022-11-21T12:23:17;11.40;99.90
2565;DHT22;1292;48.020;7.822;2022-11-21T12:25:52;11.40;99.90
2565;DHT22;1292;48.020;7.822;2022-11-21T12:28:32;11.40;99.90
2565;DHT22;1292;48.020;7.822;2022-11-21T12:31:08;11.50;99.90
2565;DHT22;1292;48.020;7.822;2022-11-21T12:33:47;11.60;99.90
2565;DHT22;1292;48.020;7.822;2022-11-21T12:36:27;11.60;99.90
2565;DHT22;1292;48.020;7.822;2022-11-21T12:39:09;11.50;99.90
2565;DHT22;1292;48.020;7.822;2022-11-21T12:41:45;11.60;99.90
2565;DHT22;1292;48.020;7.822;2022-11-21T12:44:50;11.60;99.90
2565;DHT22;1292;48.020;7.822;2022-11-21T12:47:46;11.60;99.90
2565;DHT22;1292;48.020;7.822;2022-11-21T12:50:38;11.60;99.90
2565;DHT22;1292;48.020;7.822;2022-11-21T12:53:35;11.60;99.90
2565;DHT22;1292;48.020;7.822;2022-11-21T12:56:27;11.70;99.90
2565;DHT22;1292;48.020;7.822;2022-11-21T12:58:59;11.60;99.90
2565;DHT22;1292;48.020;7.822;2022-11-21T13:01:37;11.60;99.90
2565;DHT22;1292;48.020;7.822;2022-11-21T13:04:14;11.70;99.90
2565;DHT22;1292;48.020;7.822;2022-11-21T13:06:43;11.70;99.90
2565;DHT22;1292;48.020;7.822;2022-11-21T13:09:15;11.70;99.90
2565;DHT22;1292;48.020;7.822;2022-11-21T13:11:48;11.70;99.90
2565;DHT22;1292;48.020;7.822;2022-11-21T13:14:34;11.80;99.90
2565;DHT22;1292;48.020;7.822;2022-11-21T13:17:21;11.80;99.90
2565;DHT22;1292;48.020;7.822;2022-11-21T13:19:52;11.70;99.90
2565;DHT22;1292;48.020;7.822;2022-11-21T13:22:52;11.70;99.90
2565;DHT22;1292;48.020;7.822;2022-11-21T13:25:38;11.70;99.90
2565;DHT22;1292;48.020;7.822;2022-11-21T13:28:28;11.60;99.90
2565;DHT22;1292;48.020;7.822;2022-11-21T13:30:56;11.60;99.90
2565;DHT22;1292;48.020;7.822;2022-11-21T13:33:52;11.50;99.90
2565;DHT22;1292;48.020;7.822;2022-11-21T13:36:39;11.50;99.90
2565;DHT22;1292;48.020;7.822;2022-11-21T13:39:32;11.60;99.90
2565;DHT22;1292;48.020;7.822;2022-11-21T13:42:20;11.60;99.90
2565;DHT22;1292;48.020;7.822;2022-11-21T13:45:36;11.60;99.90
2565;DHT22;1292;48.020;7.822;2022-11-21T13:48:15;11.60;99.90
2565;DHT22;1292;48.020;7.822;2022-11-21T13:50:56;11.60;99.90
2565;DHT22;1292;48.020;7.822;2022-11-21T13:53:49;11.50;99.90
2565;DHT22;1292;48.020;7.822;2022-11-21T13:56:26;11.50;99.90
2565;DHT22;1292;48.020;7.822;2022-11-21T13:59:06;11.50;99.90
2565;DHT22;1292;48.020;7.822;2022-11-21T14:01:51;11.50;99.90
2565;DHT22;1292;48.020;7.822;2022-11-21T14:04:48;11.50;99.90
2565;DHT22;1292;48.020;7.822;2022-11-21T14:07:23;11.40;99.90
2565;DHT22;1292;48.020;7.822;2022-11-21T14:09:52;11.30;99.90
2565;DHT22;1292;48.020;7.822;2022-11-21T14:12:23;11.30;99.90
2565;DHT22;1292;48.020;7.822;2022-11-21T14:14:52;11.30;99.90
2565;DHT22;1292;48.020;7.822;2022-11-21T14:17:38;11.30;99.90
2565;DHT22;1292;48.020;7.822;2022-11-21T14:20:14;11.30;99.90
2565;DHT22;1292;48.020;7.822;2022-11-21T14:22:50;11.10;99.90
2565;DHT22;1292;48.020;7.822;2022-11-21T14:25:22;11.10;99.90
2565;DHT22;1292;48.020;7.822;2022-11-21T14:27:52;11.10;99.90
2565;DHT22;1292;48.020;7.822;2022-11-21T14:30:38;11.10;99.90
2565;DHT22;1292;48.020;7.822;2022-11-21T14:33:26;11.10;99.90
2565;DHT22;1292;48.020;7.822;2022-11-21T14:35:56;11.00;99.90
2565;DHT22;1292;48.020;7.822;2022-11-21T14:38:26;10.90;99.90
2565;DHT22;1292;48.020;7.822;2022-11-21T14:41:25;11.00;99.90
2565;DHT22;1292;48.020;7.822;2022-11-21T14:44:13;10.90;99.90
2565;DHT22;1292;48.020;7.822;2022-11-21T14:46:41;10.80;99.90
2565;DHT22;1292;48.020;7.822;2022-11-21T14:49:23;10.90;99.90
2565;DHT22;1292;48.020;7.822;2022-11-21T14:51:55;10.90;99.90
2565;DHT22;1292;48.020;7.822;2022-11-21T14:54:26;10.90;99.90
2565;DHT22;1292;48.020;7.822;2022-11-21T14:56:57;10.90;99.90
2565;DHT22;1292;48.020;7.822;2022-11-21T14:59:27;10.90;99.90
2565;DHT22;1292;48.020;7.822;2022-11-21T15:01:57;10.90;99.90
2565;DHT22;1292;48.020;7.822;2022-11-21T15:04:31;10.80;99.90
2565;DHT22;1292;48.020;7.822;2022-11-21T15:06:58;10.80;99.90
2565;DHT22;1292;48.020;7.822;2022-11-21T15:09:26;10.80;99.90
2565;DHT22;1292;48.020;7.822;2022-11-21T15:11:58;10.70;99.90
2565;DHT22;1292;48.020;7.822;2022-11-21T15:14:31;10.70;99.90
2565;DHT22;1292;48.020;7.822;2022-11-21T15:17:00;10.70;99.90
2565;DHT22;1292;48.020;7.822;2022-11-21T15:19:29;10.70;99.90
2565;DHT22;1292;48.020;7.822;2022-11-21T15:21:59;10.60;99.90
2565;DHT22;1292;48.020;7.822;2022-11-21T15:24:34;10.60;99.90
2565;DHT22;1292;48.020;7.822;2022-11-21T15:27:26;10.50;99.90
2565;DHT22;1292;48.020;7.822;2022-11-21T15:30:06;10.40;99.90
2565;DHT22;1292;48.020;7.822;2022-11-21T15:32:58;10.30;99.90
2565;DHT22;1292;48.020;7.822;2022-11-21T15:35:26;10.20;99.90
2565;DHT22;1292;48.020;7.822;2022-11-21T15:37:53;10.10;99.90
2565;DHT22;1292;48.020;7.822;2022-11-21T15:40:21;10.00;99.90
2565;DHT22;1292;48.020;7.822;2022-11-21T15:42:48;10.00;99.90
2565;DHT22;1292;48.020;7.822;2022-11-21T15:45:24;9.80;99.90
2565;DHT22;1292;48.020;7.822;2022-11-21T15:47:51;9.70;99.90
2565;DHT22;1292;48.020;7.822;2022-11-21T15:50:22;9.50;99.90
2565;DHT22;1292;48.020;7.822;2022-11-21T15:52:51;9.50;99.90
2565;DHT22;1292;48.020;7.822;2022-11-21T15:55:21;9.40;99.90
2565;DHT22;1292;48.020;7.822;2022-11-21T15:57:48;9.40;99.90
2565;DHT22;1292;48.020;7.822;2022-11-21T16:00:16;9.30;99.90
2565;DHT22;1292;48.020;7.822;2022-11-21T16:02:43;9.30;99.90
2565;DHT22;1292;48.020;7.822;2022-11-21T16:05:11;9.30;99.90
2565;DHT22;1292;48.020;7.822;2022-11-21T16:07:39;9.20;99.90
2565;DHT22;1292;48.020;7.822;2022-11-21T16:10:07;9.20;99.90
2565;DHT22;1292;48.020;7.822;2022-11-21T16:12:36;9.20;99.90
2565;DHT22;1292;48.020;7.822;2022-11-21T16:15:03;9.10;99.90
2565;DHT22;1292;48.020;7.822;2022-11-21T16:17:30;9.00;99.90
2565;DHT22;1292;48.020;7.822;2022-11-21T16:19:57;9.00;99.90
2565;DHT22;1292;48.020;7.822;2022-11-21T16:22:23;8.90;99.90
2565;DHT22;1292;48.020;7.822;2022-11-21T16:24:50;8.80;99.90
2565;DHT22;1292;48.020;7.822;2022-11-21T16:27:17;8.80;99.90
2565;DHT22;1292;48.020;7.822;2022-11-21T16:29:45;8.80;99.90
2565;DHT22;1292;48.020;7.822;2022-11-21T16:32:12;8.70;99.90
2565;DHT22;1292;48.020;7.822;2022-11-21T16:34:39;8.70;99.90
2565;DHT22;1292;48.020;7.822;2022-11-21T16:37:06;8.70;99.90
2565;DHT22;1292;48.020;7.822;2022-11-21T16:39:33;8.70;99.90
2565;DHT22;1292;48.020;7.822;2022-11-21T16:42:00;8.80;99.90
2565;DHT22;1292;48.020;7.822;2022-11-21T16:44:28;8.80;99.90
2565;DHT22;1292;48.020;7.822;2022-11-21T16:46:57;8.70;99.90
2565;DHT22;1292;48.020;7.822;2022-11-21T16:49:24;8.70;99.90
2565;DHT22;1292;48.020;7.822;2022-11-21T16:51:51;8.70;99.90
2565;DHT22;1292;48.020;7.822;2022-11-21T16:54:18;8.70;99.90
2565;DHT22;1292;48.020;7.822;2022-11-21T16:56:45;8.70;99.90
2565;DHT22;1292;48.020;7.822;2022-11-21T16:59:11;8.70;99.90
2565;DHT22;1292;48.020;7.822;2022-11-21T17:01:39;8.70;99.90
2565;DHT22;1292;48.020;7.822;2022-11-21T17:04:07;8.80;99.90
2565;DHT22;1292;48.020;7.822;2022-11-21T17:06:35;8.80;99.90
2565;DHT22;1292;48.020;7.822;2022-11-21T17:09:02;8.80;99.90
2565;DHT22;1292;48.020;7.822;2022-11-21T17:11:30;8.90;99.90
2565;DHT22;1292;48.020;7.822;2022-11-21T17:13:58;8.90;99.90
2565;DHT22;1292;48.020;7.822;2022-11-21T17:16:26;8.90;99.90
2565;DHT22;1292;48.020;7.822;2022-11-21T17:18:54;8.90;99.90
2565;DHT22;1292;48.020;7.822;2022-11-21T17:21:23;8.90;99.90
2565;DHT22;1292;48.020;7.822;2022-11-21T17:23:50;9.00;99.90
2565;DHT22;1292;48.020;7.822;2022-11-21T17:26:19;9.00;99.90
2565;DHT22;1292;48.020;7.822;2022-11-21T17:28:50;9.00;99.90
2565;DHT22;1292;48.020;7.822;2022-11-21T17:31:17;9.00;99.90
2565;DHT22;1292;48.020;7.822;2022-11-21T17:33:44;9.00;99.90
2565;DHT22;1292;48.020;7.822;2022-11-21T17:36:17;9.10;99.90
2565;DHT22;1292;48.020;7.822;2022-11-21T17:38:45;9.10;99.90
2565;DHT22;1292;48.020;7.822;2022-11-21T17:41:13;9.10;99.90
2565;DHT22;1292;48.020;7.822;2022-11-21T17:43:41;9.10;99.90
2565;DHT22;1292;48.020;7.822;2022-11-21T17:46:11;9.20;99.90
2565;DHT22;1292;48.020;7.822;2022-11-21T17:48:38;9.20;99.90
2565;DHT22;1292;48.020;7.822;2022-11-21T17:51:08;9.10;99.90
2565;DHT22;1292;48.020;7.822;2022-11-21T17:53:38;9.10;99.90
2565;DHT22;1292;48.020;7.822;2022-11-21T17:56:09;9.10;99.90
2565;DHT22;1292;48.020;7.822;2022-11-21T17:58:36;9.10;99.90
2565;DHT22;1292;48.020;7.822;2022-11-21T18:01:04;9.10;99.90
2565;DHT22;1292;48.020;7.822;2022-11-21T18:03:32;9.10;99.90
2565;DHT22;1292;48.020;7.822;2022-11-21T18:06:00;9.10;99.90
2565;DHT22;1292;48.020;7.822;2022-11-21T18:08:31;9.10;99.90
2565;DHT22;1292;48.020;7.822;2022-11-21T18:10:59;9.10;99.90
2565;DHT22;1292;48.020;7.822;2022-11-21T18:13:28;9.10;99.90
2565;DHT22;1292;48.020;7.822;2022-11-21T18:15:58;9.10;99.90
2565;DHT22;1292;48.020;7.822;2022-11-21T18:18:25;9.10;99.90
2565;DHT22;1292;48.020;7.822;2022-11-21T18:20:52;9.10;99.90
2565;DHT22;1292;48.020;7.822;2022-11-21T18:23:19;9.10;99.90
2565;DHT22;1292;48.020;7.822;2022-11-21T18:25:46;9.10;99.90
2565;DHT22;1292;48.020;7.822;2022-11-21T18:28:13;9.10;99.90
2565;DHT22;1292;48.020;7.822;2022-11-21T18:30:41;9.10;99.90
2565;DHT22;1292;48.020;7.822;2022-11-21T18:33:08;9.10;99.90
2565;DHT22;1292;48.020;7.822;2022-11-21T18:35:35;9.10;99.90
2565;DHT22;1292;48.020;7.822;2022-11-21T18:38:02;9.10;99.90
2565;DHT22;1292;48.020;7.822;2022-11-21T18:40:28;9.10;99.90
2565;DHT22;1292;48.020;7.822;2022-11-21T18:42:55;9.10;99.90
2565;DHT22;1292;48.020;7.822;2022-11-21T18:45:22;9.20;99.90
2565;DHT22;1292;48.020;7.822;2022-11-21T18:47:50;9.10;99.90
2565;DHT22;1292;48.020;7.822;2022-11-21T18:50:17;9.10;99.90
2565;DHT22;1292;48.020;7.822;2022-11-21T18:52:44;9.00;99.90
2565;DHT22;1292;48.020;7.822;2022-11-21T18:55:11;9.10;99.90
2565;DHT22;1292;48.020;7.822;2022-11-21T18:57:38;9.10;99.90
2565;DHT22;1292;48.020;7.822;2022-11-21T19:00:05;9.10;99.90
2565;DHT22;1292;48.020;7.822;2022-11-21T19:02:32;9.00;99.90
2565;DHT22;1292;48.020;7.822;2022-11-21T19:05:00;9.00;99.90
2565;DHT22;1292;48.020;7.822;2022-11-21T19:07:27;9.00;99.90
2565;DHT22;1292;48.020;7.822;2022-11-21T19:09:54;9.10;99.90
2565;DHT22;1292;48.020;7.822;2022-11-21T19:12:21;9.10;99.90
2565;DHT22;1292;48.020;7.822;2022-11-21T19:14:48;9.10;99.90
2565;DHT22;1292;48.020;7.822;2022-11-21T19:17:16;9.00;99.90
2565;DHT22;1292;48.020;7.822;2022-11-21T19:19:43;9.00;99.90
2565;DHT22;1292;48.020;7.822;2022-11-21T19:22:12;8.90;99.90
2565;DHT22;1292;48.020;7.822;2022-11-21T19:24:39;8.90;99.90
2565;DHT22;1292;48.020;7.822;2022-11-21T19:27:06;8.90;99.90
2565;DHT22;1292;48.020;7.822;2022-11-21T19:29:32;8.90;99.90
2565;DHT22;1292;48.020;7.822;2022-11-21T19:31:59;8.90;99.90
2565;DHT22;1292;48.020;7.822;2022-11-21T19:34:26;9.00;99.90
2565;DHT22;1292;48.020;7.822;2022-11-21T19:36:53;9.00;99.90
2565;DHT22;1292;48.020;7.822;2022-11-21T19:39:21;9.00;99.90
2565;DHT22;1292;48.020;7.822;2022-11-21T19:41:48;9.00;99.90
2565;DHT22;1292;48.020;7.822;2022-11-21T19:44:15;9.00;99.90
2565;DHT22;1292;48.020;7.822;2022-11-21T19:46:42;8.90;99.90
2565;DHT22;1292;48.020;7.822;2022-11-21T19:49:10;8.90;99.90
2565;DHT22;1292;48.020;7.822;2022-11-21T19:51:39;8.90;99.90
2565;DHT22;1292;48.020;7.822;2022-11-21T19:54:07;8.90;99.90
2565;DHT22;1292;48.020;7.822;2022-11-21T19:56:36;8.90;99.90
2565;DHT22;1292;48.020;7.822;2022-11-21T19:59:03;8.80;99.90
2565;DHT22;1292;48.020;7.822;2022-11-21T20:01:32;8.90;99.90
2565;DHT22;1292;48.020;7.822;2022-11-21T20:04:00;8.80;99.90
2565;DHT22;1292;48.020;7.822;2022-11-21T20:06:30;8.80;99.90
2565;DHT22;1292;48.020;7.822;2022-11-21T20:08:59;8.80;99.90
2565;DHT22;1292;48.020;7.822;2022-11-21T20:11:27;8.80;99.90
2565;DHT22;1292;48.020;7.822;2022-11-21T20:13:56;8.90;99.90
2565;DHT22;1292;48.020;7.822;2022-11-21T20:16:25;8.90;99.90
2565;DHT22;1292;48.020;7.822;2022-11-21T20:18:53;8.80;99.90
2565;DHT22;1292;48.020;7.822;2022-11-21T20:21:22;8.80;99.90
2565;DHT22;1292;48.020;7.822;2022-11-21T20:23:49;8.80;99.90
2565;DHT22;1292;48.020;7.822;2022-11-21T20:26:18;8.80;99.90
2565;DHT22;1292;48.020;7.822;2022-11-21T20:28:45;8.80;99.90
2565;DHT22;1292;48.020;7.822;2022-11-21T20:31:16;8.80;99.90
2565;DHT22;1292;48.020;7.822;2022-11-21T20:33:44;8.80;99.90
2565;DHT22;1292;48.020;7.822;2022-11-21T20:36:13;8.80;99.90
2565;DHT22;1292;48.020;7.822;2022-11-21T20:38:42;8.80;99.90
2565;DHT22;1292;48.020;7.822;2022-11-21T20:41:09;8.80;99.90
2565;DHT22;1292;48.020;7.822;2022-11-21T20:43:36;8.80;99.90
2565;DHT22;1292;48.020;7.822;2022-11-21T20:46:03;8.80;99.90
2565;DHT22;1292;48.020;7.822;2022-11-21T20:48:33;8.80;99.90
2565;DHT22;1292;48.020;7.822;2022-11-21T20:51:00;8.60;99.90
2565;DHT22;1292;48.020;7.822;2022-11-21T20:53:28;8.70;99.90
2565;DHT22;1292;48.020;7.822;2022-11-21T20:55:59;8.70;99.90
2565;DHT22;1292;48.020;7.822;2022-11-21T20:58:28;8.70;99.90
2565;DHT22;1292;48.020;7.822;2022-11-21T21:00:55;8.80;99.90
2565;DHT22;1292;48.020;7.822;2022-11-21T21:03:22;8.80;99.90
2565;DHT22;1292;48.020;7.822;2022-11-21T21:05:54;8.90;99.90
2565;DHT22;1292;48.020;7.822;2022-11-21T21:08:21;8.90;99.90
2565;DHT22;1292;48.020;7.822;2022-11-21T21:10:48;8.90;99.90
2565;DHT22;1292;48.020;7.822;2022-11-21T21:13:15;9.00;99.90
2565;DHT22;1292;48.020;7.822;2022-11-21T21:15:42;9.00;99.90
2565;DHT22;1292;48.020;7.822;2022-11-21T21:18:09;9.10;99.90
2565;DHT22;1292;48.020;7.822;2022-11-21T21:20:37;9.00;99.90
2565;DHT22;1292;48.020;7.822;2022-11-21T21:23:05;9.00;99.90
2565;DHT22;1292;48.020;7.822;2022-11-21T21:25:32;9.00;99.90
2565;DHT22;1292;48.020;7.822;2022-11-21T21:27:59;9.00;99.90
2565;DHT22;1292;48.020;7.822;2022-11-21T21:30:25;9.10;99.90
2565;DHT22;1292;48.020;7.822;2022-11-21T21:32:52;9.10;99.90
2565;DHT22;1292;48.020;7.822;2022-11-21T21:35:19;9.20;99.90
2565;DHT22;1292;48.020;7.822;2022-11-21T21:37:46;9.20;99.90
2565;DHT22;1292;48.020;7.822;2022-11-21T21:40:16;9.20;99.90
2565;DHT22;1292;48.020;7.822;2022-11-21T21:42:42;9.20;99.90
2565;DHT22;1292;48.020;7.822;2022-11-21T21:45:10;9.30;99.90
2565;DHT22;1292;48.020;7.822;2022-11-21T21:47:37;9.30;99.90
2565;DHT22;1292;48.020;7.822;2022-11-21T21:50:04;9.40;99.90
2565;DHT22;1292;48.020;7.822;2022-11-21T21:52:31;9.40;99.90
2565;DHT22;1292;48.020;7.822;2022-11-21T21:54:59;9.40;99.90
2565;DHT22;1292;48.020;7.822;2022-11-21T21:57:27;9.50;99.90
2565;DHT22;1292;48.020;7.822;2022-11-21T21:59:54;9.50;99.90
